Time;durP1;ratioP1;P1;durP2;ratioP2;P2;SDS_P1;SDS_P2;PMS_P1;PMS_P2;Temp;Humidity;BMP_temperature;BMP_pressure;BME280_temperature;BME280_humidity;BME280_pressure;Samples;Min_cycle;Max_cycle;Signal;HPM_P1;HPM_P2
2021/12/26 00:01:09;;;;;;;8.60;5.72;;;;;;;-144.19;100.00;79012.91;5055256;28;20049;-84
2021/12/26 00:03:37;;;;;;;11.32;6.13;;;;;;;-144.19;100.00;79012.91;5055667;28;20537;-86
2021/12/26 00:06:08;;;;;;;9.30;5.03;;;;;;;-144.19;100.00;79020.81;5055936;28;20048;-84
2021/12/26 00:08:36;;;;;;;9.40;4.82;;;;;;;-144.19;100.00;79040.50;5056196;28;20054;-87
2021/12/26 00:11:04;;;;;;;9.70;5.57;;;;;;;-144.19;100.00;79028.69;5055503;28;20520;-84
2021/12/26 00:13:31;;;;;;;9.68;4.90;;;;;;;-144.19;100.00;79026.72;5056088;28;20051;-85
2021/12/26 00:15:59;;;;;;;7.75;4.95;;;;;;;-144.19;100.00;79036.56;5072970;28;20052;-83
2021/12/26 00:18:26;;;;;;;10.73;5.43;;;;;;;-144.19;100.00;79034.59;5074402;28;20059;-84
2021/12/26 00:20:53;;;;;;;;;;;;;;;-144.19;100.00;79034.59;5056415;28;20056;-86
2021/12/26 00:23:21;;;;;;;11.57;5.60;;;;;;;-144.19;100.00;79036.56;5072572;28;19928;-84
2021/12/26 00:25:48;;;;;;;9.18;5.18;;;;;;;-144.19;100.00;79030.66;5071818;28;20079;-87
2021/12/26 00:28:15;;;;;;;13.70;5.40;;;;;;;-144.19;100.00;79032.63;5054504;28;20048;-84
2021/12/26 00:30:43;;;;;;;7.65;5.60;;;;;;;-144.19;100.00;79016.84;5072622;28;20560;-86
2021/12/26 00:33:10;;;;;;;7.88;4.95;;;;;;;-144.19;100.00;79022.78;5073091;28;20487;-86
2021/12/26 00:35:36;;;;;;;11.82;5.30;;;;;;;-144.19;100.00;79012.91;5055277;28;20052;-85
2021/12/26 00:38:03;;;;;;;8.27;4.57;;;;;;;-144.19;100.00;79030.66;5056428;28;20052;-83
2021/12/26 00:40:32;;;;;;;10.25;5.35;;;;;;;-144.19;100.00;79028.69;5055125;28;20057;-87
2021/12/26 00:42:59;;;;;;;13.32;6.38;;;;;;;-144.19;100.00;79032.63;5053950;28;20054;-84
2021/12/26 00:45:26;;;;;;;9.45;5.32;;;;;;;-144.19;100.00;79032.63;5054907;28;20045;-86
2021/12/26 00:47:53;;;;;;;10.18;6.18;;;;;;;-144.19;100.00;79026.72;5054953;28;20049;-83
2021/12/26 00:50:24;;;;;;;13.23;6.65;;;;;;;-144.19;100.00;79028.69;5046108;28;20051;-84
2021/12/26 00:52:52;;;;;;;11.27;6.38;;;;;;;-144.19;100.00;79038.53;5054832;28;20414;-86
2021/12/26 00:55:19;;;;;;;9.13;6.75;;;;;;;-144.19;100.00;79028.69;5055408;28;20047;-86
2021/12/26 00:57:46;;;;;;;8.10;5.22;;;;;;;-144.19;100.00;79024.75;5056510;28;20044;-87
2021/12/26 01:00:20;;;;;;;7.90;6.18;;;;;;;-144.19;100.00;79018.81;5057641;28;20052;-86
2021/12/26 01:02:48;;;;;;;10.23;5.40;;;;;;;-144.19;100.00;79020.81;5072860;28;20041;-86
2021/12/26 01:05:15;;;;;;;9.20;5.53;;;;;;;-144.19;100.00;79022.78;5056593;28;20483;-86
2021/12/26 01:08:16;;;;;;;10.45;6.57;;;;;;;-144.19;100.00;79032.63;5075282;28;20056;-87
2021/12/26 01:10:46;;;;;;;8.77;4.95;;;;;;;-144.19;100.00;79028.69;5071767;28;20049;-86
2021/12/26 01:13:18;;;;;;;;;;;;;;;-144.19;100.00;79024.75;5073207;28;20044;-85
2021/12/26 01:15:47;;;;;;;9.45;6.25;;;;;;;-144.19;100.00;79026.72;5056947;28;19928;-86
2021/12/26 01:18:15;;;;;;;12.25;6.03;;;;;;;-144.19;100.00;79032.63;5073538;28;20049;-84
2021/12/26 01:20:56;;;;;;;10.23;6.00;;;;;;;-144.19;100.00;79030.66;5056415;28;20060;-83
2021/12/26 01:23:25;;;;;;;8.55;6.07;;;;;;;-144.19;100.00;79024.75;5072779;28;20044;-86
2021/12/26 01:25:52;;;;;;;10.15;6.50;;;;;;;-144.19;100.00;79036.56;5072286;28;20387;-83
2021/12/26 01:28:21;;;;;;;11.43;6.18;;;;;;;-144.19;100.00;79028.69;5074675;28;20052;-86
2021/12/26 01:30:48;;;;;;;12.65;5.80;;;;;;;-144.19;100.00;79036.56;5073244;28;20059;-85
2021/12/26 01:33:17;;;;;;;12.25;5.93;;;;;;;-144.19;100.00;79034.59;5055821;28;20066;-85
2021/12/26 01:35:44;;;;;;;10.02;7.00;;;;;;;-144.19;100.00;79044.44;5072080;28;20047;-85
2021/12/26 01:38:13;;;;;;;11.15;5.93;;;;;;;-144.19;100.00;79048.38;5070126;28;20044;-84
2021/12/26 01:40:44;;;;;;;11.57;6.00;;;;;;;-144.19;100.00;79056.25;5078527;28;20055;-86
2021/12/26 01:43:11;;;;;;;10.63;5.75;;;;;;;-144.19;100.00;79048.38;5065746;28;20515;-87
2021/12/26 01:45:37;;;;;;;9.85;6.40;;;;;;;-144.19;100.00;79064.13;5079549;28;20063;-85
2021/12/26 01:48:05;;;;;;;9.48;5.93;;;;;;;-144.19;100.00;79060.19;5079226;28;20055;-86
2021/12/26 01:50:33;;;;;;;16.20;6.38;;;;;;;-144.19;100.00;79060.19;5078914;28;20059;-86
2021/12/26 01:52:59;;;;;;;10.63;6.28;;;;;;;-144.19;100.00;79068.06;5077026;28;20471;-87
2021/12/26 01:55:38;;;;;;;;;;;;;;;-144.19;100.00;79068.06;5077893;28;20053;-86
2021/12/26 01:58:08;;;;;;;11.10;6.75;;;;;;;-144.19;100.00;79060.19;5078092;28;20310;-84
2021/12/26 02:00:36;;;;;;;12.70;5.85;;;;;;;-144.19;100.00;79064.13;5078397;28;20063;-85
2021/12/26 02:03:03;;;;;;;10.15;6.55;;;;;;;-144.19;100.00;79062.16;5077602;28;20083;-86
2021/12/26 02:05:30;;;;;;;9.52;6.50;;;;;;;-144.19;100.00;79072.00;5061061;28;20045;-84
2021/12/26 02:07:56;;;;;;;8.73;5.85;;;;;;;-144.19;100.00;79072.00;5060588;28;20053;-86
2021/12/26 02:10:22;;;;;;;8.60;5.88;;;;;;;-144.19;100.00;79066.09;5060140;28;20422;-84
2021/12/26 02:12:49;;;;;;;13.13;6.28;;;;;;;-144.19;100.00;79066.09;5077347;28;20044;-84
2021/12/26 02:15:15;;;;;;;9.48;6.18;;;;;;;-144.19;100.00;79060.19;5076751;28;20051;-86
2021/12/26 02:17:42;;;;;;;9.98;6.05;;;;;;;-144.19;100.00;79056.25;5077233;28;20071;-85
2021/12/26 02:20:19;;;;;;;11.90;6.40;;;;;;;-144.19;100.00;79052.31;5060380;28;20052;-85
2021/12/26 02:22:51;;;;;;;9.57;5.72;;;;;;;-144.19;100.00;79060.19;5076714;28;20529;-83
2021/12/26 02:27:53;;;;;;;13.13;7.15;;;;;;;-144.19;100.00;79068.06;5077718;28;20059;-85
2021/12/26 02:30:20;;;;;;;9.85;6.22;;;;;;;-144.19;100.00;79062.16;5076073;28;20417;-84
2021/12/26 02:32:48;;;;;;;;;;;;;;;-144.19;100.00;79072.00;5058965;28;20098;-85
2021/12/26 02:35:18;;;;;;;9.20;5.90;;;;;;;-144.19;100.00;79068.06;5061416;28;20405;-83
2021/12/26 02:37:44;;;;;;;12.32;5.88;;;;;;;-144.19;100.00;79073.97;5061196;28;20059;-84
2021/12/26 02:40:11;;;;;;;8.80;5.93;;;;;;;-144.19;100.00;79058.22;5076308;28;20052;-87
2021/12/26 02:42:37;;;;;;;10.65;6.25;;;;;;;-144.19;100.00;79068.06;5058296;28;20045;-88
2021/12/26 02:45:04;;;;;;;9.18;5.45;;;;;;;-144.19;100.00;79062.16;5058276;28;20063;-87
2021/12/26 02:47:37;;;;;;;11.15;6.65;;;;;;;-144.19;100.00;79068.06;5076078;28;20063;-84
2021/12/26 02:50:09;;;;;;;9.43;6.45;;;;;;;-144.19;100.00;79064.13;5057098;28;20441;-86
2021/12/26 02:52:35;;;;;;;11.18;6.18;;;;;;;-144.19;100.00;79064.13;5073687;28;20053;-85
2021/12/26 02:55:04;;;;;;;12.48;6.80;;;;;;;-144.19;100.00;79052.31;5073637;28;20044;-85
2021/12/26 02:57:30;;;;;;;11.10;6.43;;;;;;;-144.19;100.00;79056.25;5058902;28;20132;-84
2021/12/26 03:00:05;;;;;;;11.45;6.03;;;;;;;-144.19;100.00;79052.31;5065676;28;20052;-85
2021/12/26 03:02:31;;;;;;;10.23;6.03;;;;;;;-144.19;100.00;79046.41;5080202;28;20056;-84
2021/12/26 03:04:58;;;;;;;9.90;6.75;;;;;;;-144.19;100.00;79056.25;5061377;28;20414;-87
2021/12/26 03:07:25;;;;;;;13.18;6.13;;;;;;;-144.19;100.00;79052.31;5061476;28;20053;-88
2021/12/26 03:09:58;;;;;;;10.52;6.95;;;;;;;-144.19;100.00;79052.31;5060262;28;20059;-88
2021/12/26 03:12:29;;;;;;;11.80;5.55;;;;;;;-144.19;100.00;79048.38;5060379;28;20052;-87
2021/12/26 03:14:56;;;;;;;9.63;5.95;;;;;;;-144.19;100.00;79060.19;5060022;28;20051;-84
2021/12/26 03:17:24;;;;;;;9.95;5.95;;;;;;;-144.19;100.00;79044.44;5060514;28;20066;-86
2021/12/26 03:19:51;;;;;;;11.23;5.55;;;;;;;-144.19;100.00;79048.38;5060456;28;20052;-87
2021/12/26 03:22:18;;;;;;;10.23;6.05;;;;;;;-144.19;100.00;79040.50;5060064;28;20056;-87
2021/12/26 03:24:45;;;;;;;10.43;6.50;;;;;;;-144.19;100.00;79038.53;5059618;28;20051;-84
2021/12/26 03:27:12;;;;;;;;;;;;;;;-144.19;100.00;79034.59;5060749;28;20052;-84
2021/12/26 03:29:39;;;;;;;10.63;6.07;;;;;;;-144.19;100.00;79030.66;5077916;28;19920;-85
2021/12/26 03:32:05;;;;;;;;;;;;;;;-144.19;100.00;79026.72;5059905;28;20054;-86
2021/12/26 03:34:32;;;;;;;10.45;5.85;;;;;;;-144.19;100.00;79032.63;5062115;28;19920;-85
2021/12/26 03:36:58;;;;;;;9.07;5.15;;;;;;;-144.19;100.00;79032.63;5073995;28;20040;-86
2021/12/26 03:39:25;;;;;;;10.77;6.03;;;;;;;-144.19;100.00;79024.75;5075372;28;20448;-85
2021/12/26 03:41:53;;;;;;;12.40;6.22;;;;;;;-144.19;100.00;79032.63;5066999;28;20569;-85
2021/12/26 03:44:19;;;;;;;10.32;5.97;;;;;;;-144.19;100.00;79034.59;5076982;28;20052;-84
2021/12/26 03:46:46;;;;;;;13.73;6.03;;;;;;;-144.19;100.00;79032.63;5058717;28;20053;-85
2021/12/26 03:49:12;;;;;;;13.20;6.28;;;;;;;-144.19;100.00;79024.75;5077046;28;20113;-85
2021/12/26 03:51:38;;;;;;;10.68;6.20;;;;;;;-144.19;100.00;79020.81;5074522;28;20052;-85
2021/12/26 03:54:07;;;;;;;9.52;6.28;;;;;;;-144.19;100.00;79032.63;5057653;28;20044;-86
2021/12/26 03:56:34;;;;;;;12.35;5.75;;;;;;;-144.19;100.00;79028.69;5058163;28;20052;-85
2021/12/26 03:59:00;;;;;;;11.00;5.43;;;;;;;-144.19;100.00;79028.69;5057974;28;20052;-83
2021/12/26 04:01:27;;;;;;;8.60;5.53;;;;;;;-144.19;100.00;79016.84;5058008;28;20062;-87
2021/12/26 04:03:54;;;;;;;8.45;5.70;;;;;;;-144.19;100.00;79016.84;5075957;28;20072;-86
2021/12/26 04:06:21;;;;;;;10.93;5.28;;;;;;;-144.19;100.00;79028.69;5057966;28;20056;-84
2021/12/26 04:08:47;;;;;;;9.43;5.65;;;;;;;-144.19;100.00;79028.69;5075640;28;20052;-87
2021/12/26 04:11:14;;;;;;;12.48;5.97;;;;;;;-144.19;100.00;79036.56;5081462;28;20048;-85
2021/12/26 04:13:40;;;;;;;10.20;6.22;;;;;;;-144.19;100.00;79032.63;5066897;28;20494;-86
2021/12/26 04:16:07;;;;;;;10.02;5.72;;;;;;;-144.19;100.00;79012.91;5065535;28;20395;-84
2021/12/26 04:18:33;;;;;;;;;;;;;;;-144.19;100.00;79020.81;5067104;28;20052;-85
2021/12/26 04:21:00;;;;;;;11.98;5.95;;;;;;;-144.19;100.00;79024.75;5085581;28;19928;-85
2021/12/26 04:23:27;;;;;;;8.30;5.32;;;;;;;-144.19;100.00;79026.72;5074611;28;20048;-87
2021/12/26 04:25:53;;;;;;;11.05;6.35;;;;;;;-144.19;100.00;79022.78;5068404;28;20422;-87
2021/12/26 04:28:19;;;;;;;13.48;6.95;;;;;;;-144.19;100.00;79020.81;5059946;28;20064;-88
2021/12/26 04:30:47;;;;;;;12.15;6.40;;;;;;;-144.19;100.00;79024.75;5060614;28;20469;-85
2021/12/26 04:33:13;;;;;;;8.25;5.55;;;;;;;-144.19;100.00;79026.72;5059509;28;20075;-87
2021/12/26 04:35:40;;;;;;;10.68;6.60;;;;;;;-144.19;100.00;79024.75;5086461;28;20122;-85
2021/12/26 04:38:06;;;;;;;10.43;5.78;;;;;;;-144.19;100.00;79012.91;5089996;28;20123;-87
2021/12/26 04:40:33;;;;;;;8.57;5.65;;;;;;;-144.19;100.00;79016.84;5079675;28;20048;-86
2021/12/26 04:42:59;;;;;;;9.15;5.72;;;;;;;-144.19;100.00;79024.75;5078108;28;20048;-85
2021/12/26 04:45:26;;;;;;;11.95;6.35;;;;;;;-144.19;100.00;79036.56;5095546;28;20044;-85
2021/12/26 04:47:53;;;;;;;14.77;7.03;;;;;;;-144.19;100.00;79024.75;5095167;28;20047;-87
2021/12/26 04:50:22;;;;;;;10.15;4.88;;;;;;;-144.19;100.00;79022.78;5060225;28;20059;-85
2021/12/26 04:52:50;;;;;;;11.68;6.13;;;;;;;-144.19;100.00;79012.91;5073016;28;20048;-86
2021/12/26 04:55:21;;;;;;;10.15;5.82;;;;;;;-144.19;100.00;79020.81;5073074;28;20048;-85
2021/12/26 04:57:48;;;;;;;9.90;5.05;;;;;;;-144.19;100.00;79020.81;5056618;28;20056;-86
2021/12/26 05:00:18;;;;;;;13.40;6.15;;;;;;;-144.19;100.00;79008.97;5056640;28;20049;-88
2021/12/26 05:02:45;;;;;;;11.73;6.13;;;;;;;-144.19;100.00;79001.09;5056324;28;20520;-86
2021/12/26 05:05:13;;;;;;;10.27;5.32;;;;;;;-144.19;100.00;79005.03;5056974;28;20051;-84
2021/12/26 05:07:41;;;;;;;11.98;5.88;;;;;;;-144.19;100.00;79008.97;5073978;28;20048;-87
2021/12/26 05:10:09;;;;;;;10.75;5.53;;;;;;;-144.19;100.00;78997.16;5057963;28;20102;-86
2021/12/26 05:12:36;;;;;;;10.25;5.47;;;;;;;-144.19;100.00;78997.16;5057553;28;20564;-86
2021/12/26 05:15:04;;;;;;;;;;;;;;;-144.19;100.00;78993.22;5056676;28;20045;-87
2021/12/26 05:17:30;;;;;;;13.98;6.40;;;;;;;-144.19;100.00;78999.13;5076740;28;19927;-86
2021/12/26 05:19:57;;;;;;;10.00;6.25;;;;;;;-144.19;100.00;78987.31;5059789;28;20044;-86
2021/12/26 05:22:23;;;;;;;;;;;;;;;-144.19;100.00;78981.41;5077701;28;20052;-86
2021/12/26 05:24:50;;;;;;;11.32;6.28;;;;;;;-144.19;100.00;78981.41;5061278;28;19920;-86
2021/12/26 05:27:17;;;;;;;13.05;6.65;;;;;;;-144.19;100.00;78973.53;5062992;28;20530;-87
2021/12/26 05:29:57;;;;;;;8.75;5.82;;;;;;;-144.19;100.00;78989.28;5056810;28;20546;-83
2021/12/26 05:32:24;;;;;;;11.40;5.63;;;;;;;-144.19;100.00;79001.09;5060005;28;20059;-86
2021/12/26 05:34:50;;;;;;;12.57;6.50;;;;;;;-144.19;100.00;78977.47;5064359;28;20052;-86
2021/12/26 05:37:16;;;;;;;11.35;6.93;;;;;;;-144.19;100.00;78987.31;5077464;28;20051;-84
2021/12/26 05:39:43;;;;;;;9.55;5.85;;;;;;;-144.19;100.00;79005.03;5061275;28;20052;-86
2021/12/26 05:42:15;;;;;;;12.52;5.97;;;;;;;-144.19;100.00;78985.34;5076969;28;20041;-86
2021/12/26 05:44:42;;;;;;;10.23;5.88;;;;;;;-144.19;100.00;78993.22;5080827;28;20053;-85
2021/12/26 05:47:09;;;;;;;9.75;5.35;;;;;;;-144.19;100.00;78999.13;5083948;28;20044;-84
2021/12/26 05:49:35;;;;;;;;;;;;;;;-144.19;100.00;78989.28;5102467;28;20240;-83
2021/12/26 05:52:03;;;;;;;9.93;6.45;;;;;;;-144.19;100.00;78989.28;5092969;28;19920;-86
2021/12/26 05:54:29;;;;;;;11.85;5.93;;;;;;;-144.19;100.00;78985.34;5083748;28;20048;-83
2021/12/26 05:56:56;;;;;;;9.38;6.22;;;;;;;-144.19;100.00;78989.28;5065221;28;20057;-85
2021/12/26 05:59:22;;;;;;;9.48;6.30;;;;;;;-144.19;100.00;78995.19;5071855;28;20044;-86
2021/12/26 06:01:49;;;;;;;13.13;6.65;;;;;;;-144.19;100.00;78997.16;5084209;28;20056;-86
2021/12/26 06:04:15;;;;;;;12.55;6.78;;;;;;;-144.19;100.00;79010.94;5083891;28;20097;-83
2021/12/26 06:06:44;;;;;;;10.77;6.35;;;;;;;-144.19;100.00;79016.84;5083550;28;20055;-86
2021/12/26 06:09:11;;;;;;;10.05;5.82;;;;;;;-144.19;100.00;79016.84;5101923;28;20051;-87
2021/12/26 06:11:38;;;;;;;12.32;6.93;;;;;;;-144.19;100.00;79012.91;5082651;28;20063;-86
2021/12/26 06:14:04;;;;;;;;;;;;;;;-144.19;100.00;79014.88;5077717;28;20055;-85
2021/12/26 06:16:31;;;;;;;14.30;6.82;;;;;;;-144.19;100.00;79016.84;5063419;28;19927;-87
2021/12/26 06:18:57;;;;;;;11.18;6.28;;;;;;;-144.19;100.00;79016.84;5062021;28;20117;-86
2021/12/26 06:21:23;;;;;;;12.45;6.60;;;;;;;-144.19;100.00;79012.91;5062574;28;20048;-84
2021/12/26 06:23:50;;;;;;;11.50;7.03;;;;;;;-144.19;100.00;79005.03;5063195;28;20063;-84
2021/12/26 06:26:18;;;;;;;11.90;6.30;;;;;;;-144.19;100.00;79005.03;5080067;28;20494;-85
2021/12/26 06:28:45;;;;;;;12.10;6.75;;;;;;;-144.19;100.00;79008.97;5062454;28;20056;-84
2021/12/26 06:31:12;;;;;;;12.25;6.70;;;;;;;-144.19;100.00;79005.03;5078644;28;20052;-85
2021/12/26 06:33:42;;;;;;;14.50;7.40;;;;;;;-144.19;100.00;78997.16;5080043;28;20063;-84
2021/12/26 06:36:10;;;;;;;10.20;6.50;;;;;;;-144.19;100.00;79003.06;5070010;28;20128;-85
2021/12/26 06:38:37;;;;;;;12.95;6.93;;;;;;;-144.19;100.00;79008.97;5082716;28;20055;-84
2021/12/26 06:41:05;;;;;;;10.45;5.95;;;;;;;-144.19;100.00;79005.03;5062719;28;20054;-85
2021/12/26 06:43:32;;;;;;;16.45;6.97;;;;;;;-144.19;100.00;79005.03;5062147;28;20056;-87
2021/12/26 06:45:58;;;;;;;;;;;;;;;-144.19;100.00;79008.97;5087777;28;20465;-87
2021/12/26 06:48:25;;;;;;;9.82;6.65;;;;;;;-144.19;100.00;79001.09;5061756;28;20358;-84
2021/12/26 06:50:52;;;;;;;9.77;5.82;;;;;;;-144.19;100.00;78993.22;5060769;28;20052;-86
2021/12/26 06:53:19;;;;;;;14.25;6.68;;;;;;;-144.19;100.00;78993.22;5059552;28;20056;-86
2021/12/26 06:55:46;;;;;;;11.77;6.45;;;;;;;-144.19;100.00;78997.16;5059822;28;20048;-86
2021/12/26 06:58:14;;;;;;;9.98;6.63;;;;;;;-144.19;100.00;79001.09;5060237;28;20052;-86
2021/12/26 07:00:42;;;;;;;11.52;6.32;;;;;;;-144.19;100.00;78993.22;5078812;28;20415;-84
2021/12/26 07:03:09;;;;;;;12.60;6.78;;;;;;;-144.19;100.00;78997.16;5077461;28;20090;-84
2021/12/26 07:05:36;;;;;;;15.23;6.60;;;;;;;-144.19;100.00;78991.25;5059542;28;20044;-85
2021/12/26 07:08:03;;;;;;;11.05;6.05;;;;;;;-144.19;100.00;78993.22;5077634;28;20053;-85
2021/12/26 07:10:29;;;;;;;11.23;6.15;;;;;;;-144.19;100.00;78985.34;5059097;28;20060;-84
2021/12/26 07:12:57;;;;;;;13.07;7.63;;;;;;;-144.19;100.00;78993.22;5060859;28;20056;-83
2021/12/26 07:15:23;;;;;;;10.90;6.03;;;;;;;-144.19;100.00;78997.16;5072082;28;20051;-85
2021/12/26 07:17:50;;;;;;;13.35;6.88;;;;;;;-144.19;100.00;78993.22;5064459;28;20052;-88
2021/12/26 07:20:17;;;;;;;12.43;7.03;;;;;;;-144.19;100.00;78985.34;5064567;28;20053;-87
2021/12/26 07:22:46;;;;;;;11.75;6.82;;;;;;;-144.19;100.00;78981.41;5064490;28;20052;-87
2021/12/26 07:25:14;;;;;;;13.45;6.47;;;;;;;-144.19;100.00;78993.22;5060723;28;20056;-86
2021/12/26 07:27:40;;;;;;;10.52;6.28;;;;;;;-144.19;100.00;78985.34;5061851;28;20052;-87
2021/12/26 07:30:08;;;;;;;9.32;5.90;;;;;;;-144.19;100.00;78987.31;5079132;28;20053;-89
2021/12/26 07:32:35;;;;;;;13.23;6.88;;;;;;;-144.19;100.00;78979.44;5078483;28;20048;-88
2021/12/26 07:35:02;;;;;;;13.13;7.63;;;;;;;-144.19;100.00;78977.47;5066286;28;20054;-87
2021/12/26 07:37:29;;;;;;;10.70;6.63;;;;;;;-144.19;100.00;78973.53;5073545;28;20048;-88
2021/12/26 07:39:56;;;;;;;11.93;6.30;;;;;;;-144.19;100.00;78979.44;5063935;28;20269;-85
2021/12/26 07:42:22;;;;;;;12.43;7.78;;;;;;;-144.19;100.00;78977.47;5077593;28;20429;-85
2021/12/26 07:44:49;;;;;;;12.43;7.15;;;;;;;-144.19;100.00;78987.31;5059433;28;20045;-87
2021/12/26 07:47:16;;;;;;;12.27;6.35;;;;;;;-144.19;100.00;78983.38;5060732;28;20052;-88
2021/12/26 07:49:42;;;;;;;11.40;6.35;;;;;;;-144.19;100.00;78987.31;5076757;28;20082;-83
2021/12/26 07:52:16;;;;;;;11.20;6.65;;;;;;;-144.19;100.00;78993.22;5061674;28;20059;-86
2021/12/26 07:54:44;;;;;;;12.02;6.47;;;;;;;-144.19;100.00;78995.19;5059856;28;20056;-86
2021/12/26 07:57:11;;;;;;;10.45;6.65;;;;;;;-144.19;100.00;78987.31;5062168;28;20058;-83
2021/12/26 07:59:38;;;;;;;9.75;5.70;;;;;;;-144.19;100.00;78985.34;5053656;28;20051;-86
2021/12/26 08:02:04;;;;;;;12.88;5.90;;;;;;;-144.19;100.00;78985.34;5064910;28;20041;-86
2021/12/26 08:04:31;;;;;;;9.52;5.88;;;;;;;-144.19;100.00;78989.28;5068986;28;20064;-82
2021/12/26 08:06:59;;;;;;;9.18;5.85;;;;;;;-144.19;100.00;78981.41;5069984;28;20062;-88
2021/12/26 08:09:27;;;;;;;12.80;6.40;;;;;;;-144.19;100.00;78981.41;5071098;28;20048;-84
2021/12/26 08:11:53;;;;;;;13.80;6.47;;;;;;;-144.19;100.00;78977.47;5068456;28;20044;-83
2021/12/26 08:14:19;;;;;;;12.75;6.60;;;;;;;-144.19;100.00;78969.59;5080560;28;20049;-86
2021/12/26 08:16:46;;;;;;;9.13;5.38;;;;;;;-144.19;100.00;78957.78;5083484;28;20048;-84
2021/12/26 08:19:12;;;;;;;12.07;6.88;;;;;;;-144.19;100.00;78965.66;5069811;28;20048;-84
2021/12/26 08:21:39;;;;;;;9.90;6.43;;;;;;;-144.19;100.00;78953.84;5084382;28;20054;-83
2021/12/26 08:24:05;;;;;;;12.63;7.00;;;;;;;-144.19;100.00;78949.91;5064596;28;20044;-84
2021/12/26 08:26:35;;;;;;;9.18;6.00;;;;;;;-144.19;100.00;78945.94;5068432;28;20108;-86
2021/12/26 08:29:01;;;;;;;;;;;;;;;-144.19;100.00;78947.94;5069133;28;20062;-84
2021/12/26 08:31:29;;;;;;;12.68;6.45;;;;;;;-144.19;100.00;78932.16;5083891;28;19927;-84
2021/12/26 08:33:55;;;;;;;13.88;6.18;;;;;;;-144.19;100.00;78930.19;5068560;28;20087;-83
2021/12/26 08:36:24;;;;;;;9.05;5.25;;;;;;;-144.19;100.00;78926.25;5067895;28;20036;-84
2021/12/26 08:38:51;;;;;;;11.85;6.32;;;;;;;-144.19;100.00;78926.25;5078197;28;20067;-86
2021/12/26 08:41:22;;;;;;;9.10;5.63;;;;;;;-144.19;100.00;78920.34;5072416;28;20061;-84
2021/12/26 08:43:49;;;;;;;10.80;6.03;;;;;;;-144.19;100.00;78910.50;5087402;28;20055;-85
2021/12/26 08:46:16;;;;;;;10.15;6.15;;;;;;;-144.19;100.00;78894.75;5086152;28;20042;-84
2021/12/26 08:48:45;;;;;;;9.75;5.72;;;;;;;-144.19;100.00;78898.69;5072022;28;20048;-81
2021/12/26 08:51:12;;;;;;;11.57;6.13;;;;;;;-144.19;100.00;78894.75;5095519;28;20101;-84
2021/12/26 08:53:39;;;;;;;12.35;6.78;;;;;;;-144.19;100.00;78882.94;5075855;28;20048;-86
2021/12/26 08:56:05;;;;;;;14.25;6.00;;;;;;;-144.19;100.00;78879.00;5077958;28;20054;-84
2021/12/26 08:58:32;;;;;;;13.75;5.75;;;;;;;-144.19;100.00;78875.06;5058784;28;20476;-82
2021/12/26 09:00:59;;;;;;;10.65;5.65;;;;;;;-144.19;100.00;78869.13;5058019;28;20060;-84
2021/12/26 09:03:25;;;;;;;9.55;5.65;;;;;;;-144.19;100.00;78865.19;5056855;28;20067;-85
2021/12/26 09:05:52;;;;;;;10.02;5.20;;;;;;;-144.19;100.00;78857.31;5074713;28;20048;-84
2021/12/26 09:08:20;;;;;;;7.68;5.15;;;;;;;-144.19;100.00;78849.44;5055676;28;20040;-89
2021/12/26 09:10:47;;;;;;;8.38;5.47;;;;;;;-144.19;100.00;78837.63;5074003;28;20451;-84
2021/12/26 09:13:13;;;;;;;13.27;5.53;;;;;;;-144.19;100.00;78833.69;5058398;28;20420;-88
2021/12/26 09:15:40;;;;;;;8.82;5.10;;;;;;;-144.19;100.00;78825.81;5058927;28;20070;-85
2021/12/26 09:18:07;;;;;;;11.98;5.85;;;;;;;-144.19;100.00;78821.88;5057812;28;20118;-86
2021/12/26 09:20:33;;;;;;;10.43;5.80;;;;;;;-144.19;100.00;78815.97;5062601;28;20100;-88
2021/12/26 09:23:00;;;;;;;10.80;5.95;;;;;;;-144.19;100.00;78804.16;5077980;28;20053;-87
2021/12/26 09:25:26;;;;;;;13.75;6.97;;;;;;;-144.19;100.00;78786.41;5076128;28;20070;-86
2021/12/26 09:27:53;;;;;;;21.75;10.77;;;;;;;-144.19;100.00;78776.56;5076218;28;20054;-83
2021/12/26 09:30:21;;;;;;;8.98;5.80;;;;;;;-144.19;100.00;78774.59;5060114;28;20052;-86
2021/12/26 09:32:49;;;;;;;12.30;6.07;;;;;;;-144.19;100.00;78768.69;5060201;28;20524;-87
2021/12/26 09:35:17;;;;;;;7.97;5.50;;;;;;;-144.19;100.00;78756.88;5084234;28;20056;-83
2021/12/26 09:37:44;;;;;;;7.88;5.00;;;;;;;-144.19;100.00;78750.97;5080051;28;20052;-83
2021/12/26 09:40:11;;;;;;;;;;;;;;;-144.19;100.00;78737.19;5055435;28;20059;-83
2021/12/26 09:42:38;;;;;;;12.93;7.45;;;;;;;-144.19;100.00;78735.22;5056559;28;19928;-83
2021/12/26 09:45:06;;;;;;;14.35;7.53;;;;;;;-144.19;100.00;78725.38;5038674;28;20048;-84
2021/12/26 09:47:32;;;;;;;17.20;8.32;;;;;;;-144.19;100.00;78717.50;5056430;28;20124;-85
2021/12/26 09:50:00;;;;;;;13.43;8.20;;;;;;;-144.19;100.00;78711.59;5054772;28;20056;-85
2021/12/26 09:52:27;;;;;;;14.10;7.43;;;;;;;-144.19;100.00;78697.78;5055348;28;20049;-84
2021/12/26 09:54:53;;;;;;;13.20;6.80;;;;;;;-144.19;100.00;78678.09;5062486;28;20437;-84
2021/12/26 09:57:20;;;;;;;12.43;6.65;;;;;;;-144.19;100.00;78670.22;5064755;28;20054;-84
2021/12/26 09:59:48;;;;;;;9.95;6.05;;;;;;;-144.19;100.00;78654.47;5062419;28;20419;-84
2021/12/26 10:02:18;;;;;;;9.80;6.75;;;;;;;-144.19;100.00;78638.72;5073517;28;20124;-86
2021/12/26 10:04:48;;;;;;;9.75;5.22;;;;;;;-144.19;100.00;78622.97;5076802;28;20044;-85
2021/12/26 10:07:23;;;;;;;12.05;5.82;;;;;;;-144.19;100.00;78624.94;5096064;28;20063;-86
2021/12/26 10:09:52;;;;;;;10.50;6.20;;;;;;;-144.19;100.00;78599.31;5081075;28;20638;-85
2021/12/26 10:12:20;;;;;;;11.25;6.75;;;;;;;-144.19;100.00;78591.44;5089944;28;21215;-88
2021/12/26 10:14:49;;;;;;;10.85;6.05;;;;;;;-144.19;100.00;78565.84;5065247;28;20056;-85
2021/12/26 10:17:23;;;;;;;8.80;6.07;;;;;;;-144.19;100.00;78559.94;5072605;28;20043;-85
2021/12/26 10:19:51;;;;;;;8.60;5.20;;;;;;;-144.19;100.00;78534.34;5082753;28;20502;-83
2021/12/26 10:22:28;;;;;;;10.02;5.60;;;;;;;-144.19;100.00;78536.31;5081864;28;20063;-85
2021/12/26 10:24:55;;;;;;;11.03;5.23;;;;;;;-144.19;100.00;78518.56;5102199;28;20048;-83
2021/12/26 10:27:29;;;;;;;10.40;5.35;;;;;;;-144.19;100.00;78461.47;5083911;28;20078;-84
2021/12/26 10:29:58;;;;;;;11.07;5.63;;;;;;;-144.19;100.00;78465.41;5069439;28;20425;-84
2021/12/26 10:32:33;;;;;;;7.70;4.97;;;;;;;-144.19;100.00;78477.22;5080291;28;20059;-84
2021/12/26 10:35:05;;;;;;;9.05;5.35;;;;;;;-144.19;100.00;78443.75;5068091;28;20044;-85
2021/12/26 10:37:47;;;;;;;9.80;5.75;;;;;;;-144.19;100.00;78447.69;5082261;28;20051;-84
2021/12/26 10:40:24;;;;;;;8.02;5.05;;;;;;;-144.19;100.00;78402.38;5042228;28;20057;-83
2021/12/26 10:42:54;;;;;;;;;;;;;;;-144.19;100.00;78449.66;5060722;28;20045;-84
2021/12/26 10:45:25;;;;;;;10.38;6.18;;;;;;;-144.19;100.00;78449.66;5041953;28;20305;-82
2021/12/26 10:47:58;;;;;;;10.60;5.43;;;;;;;-144.19;100.00;78433.91;5043017;28;20055;-86
2021/12/26 10:50:27;;;;;;;9.88;5.70;;;;;;;-144.19;100.00;78439.81;5042591;28;20052;-86
2021/12/26 10:52:59;;;;;;;10.40;6.00;;;;;;;-144.19;100.00;78441.78;5059580;28;20430;-81
2021/12/26 10:55:32;;;;;;;11.65;6.07;;;;;;;-144.19;100.00;78433.91;5047251;28;20045;-83
2021/12/26 10:58:01;;;;;;;10.93;5.80;;;;;;;-144.19;100.00;78435.88;5061721;28;20048;-86
2021/12/26 11:00:32;;;;;;;9.40;5.80;;;;;;;-144.19;100.00;78433.91;5079365;28;20084;-86
2021/12/26 11:03:05;;;;;;;11.73;6.55;;;;;;;-144.19;100.00;78429.97;5077854;28;20057;-84
2021/12/26 11:05:43;;;;;;;10.63;6.10;;;;;;;-144.19;100.00;78416.19;5076720;28;20246;-85
2021/12/26 11:08:15;;;;;;;12.00;6.35;;;;;;;-144.19;100.00;78414.19;5079467;28;20418;-86
2021/12/26 11:10:48;;;;;;;11.48;6.07;;;;;;;-144.19;100.00;78382.69;5059541;28;20062;-86
2021/12/26 11:13:26;;;;;;;10.02;5.82;;;;;;;-144.19;100.00;78376.78;5077436;28;20067;-86